Time,TemperatureC,DewpointC,PressurehPa,WindDirection,WindDirectionDegrees,WindSpeedKMH,WindSpeedGustKMH,Humidity,HourlyPrecipMM,Conditions,Clouds,dailyrainMM,SolarRadiationWatts/m^2,UVIndex,SoftwareType,DateUTC
2024-07-18 00:02:55,14.1,15.1,1018.6,South,180,1.5,1.9,74.3,0.0,,,0.0,2,0,n/a,2024-07-17T22:02:55Z
2024-07-18 00:08:56,13.9,15.1,1018.6,SE,135,0.2,0.6,74.5,0.0,,,0.0,2,0,n/a,2024-07-17T22:08:56Z
2024-07-18 00:14:56,14.1,15.1,1018.6,SW,234,2.9,3.7,74.7,0.0,,,0.0,0,0,n/a,2024-07-17T22:14:56Z
2024-07-18 00:17:56,14.1,15.1,1018.6,SE,135,0.3,0.5,74.9,0.0,,,0.0,0,0,n/a,2024-07-17T22:17:56Z
2024-07-18 00:23:55,14.2,15,1018.6,SW,216,1,2,75,0.0,,,0.0,0,0,n/a,2024-07-17T22:23:55Z
2024-07-18 00:29:56,14.2,15,1018.6,South,180,3,4.3,74.9,0.0,,,0.0,0,0,n/a,2024-07-17T22:29:56Z
2024-07-18 00:32:56,14.2,15,1018.6,SE,135,1.1,1.6,75,0.0,,,0.0,0,0,n/a,2024-07-17T22:32:56Z
2024-07-18 00:38:52,14.3,15.2,1018.6,East,91,2.2,3.2,75.5,0.0,,,0.0,0,0,n/a,2024-07-17T22:38:52Z
2024-07-18 00:44:56,14,15.1,1018.6,ESE,112,0.8,1.1,75.6,0.0,,,0.0,2,0,n/a,2024-07-17T22:44:56Z
2024-07-18 00:47:56,13.9,15,1018.6,North,0,0,0,75.3,0.0,,,0.0,0,0,n/a,2024-07-17T22:47:56Z
2024-07-18 00:53:56,13.7,15,1018.6,WSW,246,1.4,2.1,75.6,0.0,,,0.0,2,0,n/a,2024-07-17T22:53:56Z
2024-07-18 00:59:52,13.7,14.8,1018.6,South,180,0.4,0.7,75.2,0.0,,,0.0,2,0,n/a,2024-07-17T22:59:52Z
2024-07-18 01:02:55,13.6,14.6,1018.6,SE,135,0,0,75.3,0.0,,,0.0,2,0,n/a,2024-07-17T23:02:55Z
2024-07-18 01:08:55,13.6,14.6,1018.6,South,180,1,2.1,75.3,0.0,,,0.0,2,0,n/a,2024-07-17T23:08:55Z
2024-07-18 01:14:52,13.4,14.5,1018.8,SSW,204,2.8,3.9,75.1,0.0,,,0.0,2,0,n/a,2024-07-17T23:14:52Z
2024-07-18 01:17:56,13.4,14.4,1018.6,WNW,292,0,0,75.2,0.0,,,0.0,0,0,n/a,2024-07-17T23:17:56Z
2024-07-18 01:23:56,13.2,14.4,1018.6,North,0,1.3,1.9,75.3,0.0,,,0.0,2,0,n/a,2024-07-17T23:23:56Z
2024-07-18 01:29:52,13.4,14.3,1018.6,NW,305,0.8,1.3,75.3,0.0,,,0.0,0,0,n/a,2024-07-17T23:29:52Z
2024-07-18 01:32:55,13.1,14.3,1018.6,ESE,112,0.3,0.5,75.4,0.0,,,0.0,0,0,n/a,2024-07-17T23:32:55Z
2024-07-18 01:38:56,13.1,14.2,1018.6,East,90,0,0,75.7,0.0,,,0.0,0,0,n/a,2024-07-17T23:38:56Z
2024-07-18 01:44:56,13,14.2,1018.6,NNE,32,1.7,2.1,76.1,0.0,,,0.0,0,0,n/a,2024-07-17T23:44:56Z
2024-07-18 01:47:56,12.9,14.2,1018.6,North,0,0.3,0.6,75.7,0.0,,,0.0,2,0,n/a,2024-07-17T23:47:56Z
2024-07-18 01:53:56,12.8,14,1018.6,NNE,22,0,0,75.9,0.0,,,0.0,0,0,n/a,2024-07-17T23:53:56Z
2024-07-18 01:59:55,12.5,14,1018.6,NNW,328,2.6,3.9,76.3,0.0,,,0.0,0,0,n/a,2024-07-17T23:59:55Z
2024-07-18 02:02:55,12.6,14,1018.3,NNE,22,0.3,0.5,76.4,0.0,,,0.0,2,0,n/a,2024-07-18T00:02:55Z
2024-07-18 02:08:56,12.7,13.9,1018.3,North,0,0.4,1.3,76.7,0.0,,,0.0,2,0,n/a,2024-07-18T00:08:56Z
2024-07-18 02:14:56,12.6,13.9,1018.6,SSE,156,1.7,2,76.9,0.0,,,0.0,2,0,n/a,2024-07-18T00:14:56Z
2024-07-18 02:17:55,12.5,13.8,1018.3,ESE,112,0,0,76.6,0.0,,,0.0,2,0,n/a,2024-07-18T00:17:55Z
2024-07-18 02:23:52,12.5,13.9,1018.3,ESE,112,0,0,77.2,0.0,,,0.0,0,0,n/a,2024-07-18T00:23:52Z
2024-07-18 02:29:56,12.4,13.8,1018.6,ESE,112,0,0,77.1,0.0,,,0.0,2,0,n/a,2024-07-18T00:29:56Z
2024-07-18 02:32:55,12.3,13.8,1018.3,ESE,112,0,0,77.1,0.0,,,0.0,0,0,n/a,2024-07-18T00:32:55Z
2024-07-18 02:38:52,12.2,13.7,1018.6,North,0,0.4,1.3,77.2,0.0,,,0.0,0,0,n/a,2024-07-18T00:38:52Z
2024-07-18 02:44:55,12.1,13.5,1018.6,NNW,337,0,0,77,0.0,,,0.0,0,0,n/a,2024-07-18T00:44:55Z
2024-07-18 02:47:55,12.1,13.5,1018.6,North,0,0,0,77.2,0.0,,,0.0,2,0,n/a,2024-07-18T00:47:55Z
2024-07-18 02:53:52,12.1,13.5,1018.6,East,90,0.2,0.5,77.7,0.0,,,0.0,0,0,n/a,2024-07-18T00:53:52Z
2024-07-18 02:59:56,12.1,13.4,1018.3,North,0,0.5,0.6,77.7,0.0,,,0.0,2,0,n/a,2024-07-18T00:59:56Z
2024-07-18 03:02:56,11.9,13.5,1018.3,NW,315,0.3,0.5,78.3,0.0,,,0.0,0,0,n/a,2024-07-18T01:02:56Z
2024-07-18 03:08:52,12,13.4,1018.3,North,0,0,0,78,0.0,,,0.0,2,0,n/a,2024-07-18T01:08:52Z
2024-07-18 03:14:56,11.9,13.4,1018.6,SE,135,0,0,78.2,0.0,,,0.0,2,0,n/a,2024-07-18T01:14:56Z
2024-07-18 03:17:55,12,13.5,1018.3,South,180,0.9,1.1,78.6,0.0,,,0.0,2,0,n/a,2024-07-18T01:17:55Z
2024-07-18 03:23:56,11.8,13.4,1018.3,ENE,67,0,0,78.4,0.0,,,0.0,2,0,n/a,2024-07-18T01:23:56Z
2024-07-18 03:29:52,11.7,13.2,1018.3,North,0,0,0,78.2,0.0,,,0.0,0,0,n/a,2024-07-18T01:29:52Z
2024-07-18 03:32:55,11.6,13.2,1018.3,NNE,22,0,0,78,0.0,,,0.0,2,0,n/a,2024-07-18T01:32:55Z
2024-07-18 03:38:56,11.5,13,1018.3,North,0,0.2,0.6,78,0.0,,,0.0,2,0,n/a,2024-07-18T01:38:56Z
2024-07-18 03:44:55,11.7,13,1018.0,North,0,0,0,78.3,0.0,,,0.0,2,0,n/a,2024-07-18T01:44:55Z
2024-07-18 03:47:56,11.6,13,1018.0,North,0,0,0,78.5,0.0,,,0.0,0,0,n/a,2024-07-18T01:47:56Z
2024-07-18 03:53:56,11.6,13,1018.0,NNW,337,0,0,78.4,0.0,,,0.0,2,0,n/a,2024-07-18T01:53:56Z
2024-07-18 03:59:55,11.5,13,1018.0,SSW,202,0.2,0.7,78.8,0.0,,,0.0,2,0,n/a,2024-07-18T01:59:55Z
2024-07-18 04:02:52,11.4,13.1,1018.0,East,90,0,0,78.8,0.0,,,0.0,0,0,n/a,2024-07-18T02:02:52Z
2024-07-18 04:08:55,11.3,13,1018.0,ESE,112,0,0,79,0.0,,,0.0,2,0,n/a,2024-07-18T02:08:55Z
2024-07-18 04:14:56,11.3,12.9,1018.0,ESE,112,0,0,78.8,0.0,,,0.0,0,0,n/a,2024-07-18T02:14:56Z
2024-07-18 04:17:52,11.3,12.8,1018.0,ESE,112,0,0,78.9,0.0,,,0.0,0,0,n/a,2024-07-18T02:17:52Z
2024-07-18 04:23:55,11.1,12.8,1018.0,North,0,0.3,0.6,78.8,0.0,,,0.0,2,0,n/a,2024-07-18T02:23:55Z
2024-07-18 04:29:56,11.2,12.8,1018.0,NW,315,0,0,79.2,0.0,,,0.0,2,0,n/a,2024-07-18T02:29:56Z
2024-07-18 04:32:55,11.2,12.8,1018.0,SW,225,1.8,1.9,79.1,0.0,,,0.0,0,0,n/a,2024-07-18T02:32:55Z
2024-07-18 04:38:56,11.3,12.8,1018.0,WNW,292,0,0,79.6,0.0,,,0.0,2,0,n/a,2024-07-18T02:38:56Z
2024-07-18 04:44:55,11.2,12.8,1018.0,WSW,247,0,0,79.6,0.0,,,0.0,0,0,n/a,2024-07-18T02:44:55Z
2024-07-18 04:47:56,11.2,12.8,1018.0,North,0,3.5,3.9,80,0.0,,,0.0,2,0,n/a,2024-07-18T02:47:56Z
2024-07-18 04:53:52,11.2,12.7,1018.0,SW,225,0.2,0.6,79.9,0.0,,,0.0,0,0,n/a,2024-07-18T02:53:52Z
2024-07-18 04:59:56,11.2,12.7,1018.0,SSE,159,1.3,2.2,80.1,0.0,,,0.0,2,0,n/a,2024-07-18T02:59:56Z
2024-07-18 05:02:55,11.2,12.7,1018.0,WNW,292,1.2,1.3,80.3,0.0,,,0.0,2,0,n/a,2024-07-18T03:02:55Z
2024-07-18 05:08:55,11.1,12.7,1018.3,North,9,1.7,2.7,80.2,0.0,,,0.0,2,0,n/a,2024-07-18T03:08:55Z
2024-07-18 05:14:56,11.2,12.7,1018.3,WSW,244,0.7,1.3,80.4,0.0,,,0.0,4,0,n/a,2024-07-18T03:14:56Z
2024-07-18 05:17:55,11.4,12.8,1018.3,WNW,292,2.7,2.7,80.8,0.0,,,0.0,6,0,n/a,2024-07-18T03:17:55Z
2024-07-18 05:23:55,11.5,12.9,1018.3,NNE,23,1.9,2.6,81.7,0.0,,,0.0,8,0,n/a,2024-07-18T03:23:55Z
2024-07-18 05:29:55,11.7,13.1,1018.3,WNW,290,1.8,2,82.3,0.0,,,0.0,8,0,n/a,2024-07-18T03:29:55Z
2024-07-18 05:32:55,12,13.2,1018.3,NW,324,5.5,5.9,82.7,0.0,,,0.0,10,0,n/a,2024-07-18T03:32:55Z
2024-07-18 05:38:52,12.2,13.5,1018.6,East,90,1.2,2,83.7,0.0,,,0.0,12,0,n/a,2024-07-18T03:38:52Z
2024-07-18 05:44:56,12.3,13.5,1018.6,South,180,0.1,0.6,83.7,0.0,,,0.0,18,0,n/a,2024-07-18T03:44:56Z
2024-07-18 05:47:56,12.4,13.5,1018.3,SSW,202,1.4,1.6,83.3,0.0,,,0.0,20,0,n/a,2024-07-18T03:47:56Z
2024-07-18 05:53:52,12.6,13.7,1018.6,SW,225,0.7,1.3,83.6,0.0,,,0.0,22,0,n/a,2024-07-18T03:53:52Z
2024-07-18 05:59:55,12.6,13.7,1018.3,SSW,197,1.8,2.7,83.8,0.0,,,0.0,28,0,n/a,2024-07-18T03:59:55Z
2024-07-18 06:02:56,12.7,13.9,1018.3,South,180,0.9,1.1,84.1,0.0,,,0.0,30,0,n/a,2024-07-18T04:02:56Z
2024-07-18 06:08:52,12.8,13.8,1018.6,West,269,0.4,0.7,83.9,0.0,,,0.0,36,0,n/a,2024-07-18T04:08:52Z
2024-07-18 06:14:55,13,14,1018.3,WSW,247,0.9,2,84.2,0.0,,,0.0,54,0,n/a,2024-07-18T04:14:55Z
2024-07-18 06:17:55,13.2,14.2,1018.3,SE,135,1.2,1.3,84.4,0.0,,,0.0,74,0,n/a,2024-07-18T04:17:55Z
2024-07-18 06:23:55,13.3,14.3,1018.3,SW,225,1.8,2.8,84.2,0.0,,,0.0,112,0,n/a,2024-07-18T04:23:55Z
2024-07-18 06:29:56,13.5,14.4,1018.3,North,0,1.5,2.7,83.8,0.0,,,0.0,90,0,n/a,2024-07-18T04:29:56Z
2024-07-18 06:32:55,13.7,14.4,1018.0,South,180,4.7,4.8,83.5,0.0,,,0.0,132,0,n/a,2024-07-18T04:32:55Z
2024-07-18 06:38:56,13.9,14.6,1018.3,South,183,1.2,2.6,83.7,0.0,,,0.0,172,0,n/a,2024-07-18T04:38:56Z
2024-07-18 06:44:56,14.3,14.9,1018.3,West,270,0,0,83.9,0.0,,,0.0,186,0,n/a,2024-07-18T04:44:56Z
2024-07-18 06:47:55,14.5,15,1018.3,North,0,0.6,0.7,83.6,0.0,,,0.0,190,0,n/a,2024-07-18T04:47:55Z
2024-07-18 06:53:55,14.9,15.1,1018.3,SW,225,1,1.7,83.4,0.0,,,0.0,220,0,n/a,2024-07-18T04:53:55Z
2024-07-18 06:59:55,15.4,15.2,1018.3,South,189,3.5,3.9,82.4,0.0,,,0.0,284,0,n/a,2024-07-18T04:59:55Z
2024-07-18 07:02:55,15.5,15.4,1018.0,South,170,2.9,3.3,82.2,0.0,,,0.0,310,0,n/a,2024-07-18T05:02:55Z
2024-07-18 07:08:56,15.8,15.6,1018.3,SW,225,1.6,4.9,81.6,0.0,,,0.0,320,0,n/a,2024-07-18T05:08:56Z
2024-07-18 07:14:55,16.3,15.8,1018.3,SSW,202,1.5,3.2,81.3,0.0,,,0.0,332,0,n/a,2024-07-18T05:14:55Z
2024-07-18 07:17:52,16.5,15.8,1018.0,North,0,3.8,3.9,80.4,0.0,,,0.0,308,0,n/a,2024-07-18T05:17:52Z
2024-07-18 07:23:55,16.8,15.9,1018.3,WSW,257,4.1,5.1,79.6,0.0,,,0.0,338,0,n/a,2024-07-18T05:23:55Z
2024-07-18 07:29:55,17,16.3,1018.3,WSW,241,5.2,6.3,79.6,0.0,,,0.0,300,0,n/a,2024-07-18T05:29:55Z
2024-07-18 07:32:52,17.3,16.5,1018.3,North,0,2.6,2.6,79.8,0.0,,,0.0,146,0,n/a,2024-07-18T05:32:52Z
2024-07-18 07:38:55,17.6,16.5,1018.3,NW,321,1.8,2,78.5,0.0,,,0.0,134,0,n/a,2024-07-18T05:38:55Z
2024-07-18 07:44:52,18.1,16.8,1018.0,ESE,112,0.2,0.5,77.7,0.0,,,0.0,92,0,n/a,2024-07-18T05:44:52Z
2024-07-18 07:47:55,18.3,16.8,1018.0,East,90,0.3,0.7,76.1,0.0,,,0.0,82,0,n/a,2024-07-18T05:47:55Z
2024-07-18 07:53:55,18.7,16.5,1018.3,East,86,2.5,3.9,74.4,0.0,,,0.0,74,0,n/a,2024-07-18T05:53:55Z
2024-07-18 07:59:52,18.5,16.6,1018.6,ESE,104,1.8,2,74.6,0.0,,,0.0,84,0,n/a,2024-07-18T05:59:52Z
2024-07-18 08:02:55,18.6,16.3,1018.6,ESE,112,1.8,2,74.1,0.0,,,0.0,142,0,n/a,2024-07-18T06:02:55Z
2024-07-18 08:08:56,18.8,16.6,1018.6,ENE,68,3,3.9,74.9,0.0,,,0.0,324,0,n/a,2024-07-18T06:08:56Z
2024-07-18 08:14:55,19,16.7,1018.6,East,90,3.7,5.3,75.2,0.0,,,0.0,358,0,n/a,2024-07-18T06:14:55Z
2024-07-18 08:17:55,19,16.7,1018.6,ENE,67,2.1,2.6,75.1,0.0,,,0.0,374,0,n/a,2024-07-18T06:17:55Z
2024-07-18 08:23:55,18.9,16.4,1018.6,ESE,112,0.6,1.3,73.7,0.0,,,0.0,376,0,n/a,2024-07-18T06:23:55Z
2024-07-18 08:29:56,19,16.7,1018.6,NE,55,3.3,4.6,74.5,0.0,,,0.0,138,0,n/a,2024-07-18T06:29:56Z
2024-07-18 08:32:55,19.1,16.5,1018.6,NNE,22,0.3,0.5,73.6,0.0,,,0.0,52,0,n/a,2024-07-18T06:32:55Z
2024-07-18 08:38:52,19.1,16.8,1018.6,NE,46,5.8,7.2,74,0.0,,,0.0,56,0,n/a,2024-07-18T06:38:52Z
2024-07-18 08:44:55,19.4,16.6,1018.6,NNW,342,2,3.3,73.1,0.0,,,0.0,54,0,n/a,2024-07-18T06:44:55Z
2024-07-18 08:47:56,19.4,16.9,1018.6,ENE,67,4.8,5.2,74,0.0,,,0.0,54,0,n/a,2024-07-18T06:47:56Z
2024-07-18 08:53:52,19.6,16.8,1018.6,East,81,2.4,2.7,73.5,0.0,,,0.0,62,0,n/a,2024-07-18T06:53:52Z
2024-07-18 08:59:55,19.8,17,1018.6,NE,48,2.2,4,73.3,0.0,,,0.0,52,0,n/a,2024-07-18T06:59:55Z
2024-07-18 09:02:55,20,17.6,1018.6,East,90,3.2,3.3,75.9,0.0,,,0.0,56,0,n/a,2024-07-18T07:02:55Z
2024-07-18 09:08:55,20.1,17.3,1018.8,ENE,71,2.1,5.2,73.1,0.0,,,0.0,56,0,n/a,2024-07-18T07:08:55Z
2024-07-18 09:14:56,20.3,17.5,1018.6,East,94,2.6,3.3,73.6,0.0,,,0.0,64,0,n/a,2024-07-18T07:14:56Z
2024-07-18 09:17:55,20.2,17.7,1018.6,East,90,1.8,1.9,73.5,0.0,,,0.0,64,0,n/a,2024-07-18T07:17:55Z
2024-07-18 09:23:56,20.4,17.4,1018.8,ESE,112,1.8,2.1,72.2,0.0,,,0.0,64,0,n/a,2024-07-18T07:23:56Z
2024-07-18 09:29:56,20.4,17.3,1018.8,ENE,71,3.9,4.4,71.5,0.0,,,0.0,66,0,n/a,2024-07-18T07:29:56Z
2024-07-18 09:32:52,20.4,17.3,1018.6,ESE,112,1.3,1.3,71.6,0.0,,,0.0,60,0,n/a,2024-07-18T07:32:52Z
2024-07-18 09:38:56,20.4,17.5,1018.6,East,90,1.8,2.2,71.7,0.0,,,0.0,68,0,n/a,2024-07-18T07:38:56Z
2024-07-18 09:44:55,20.5,17.5,1018.6,East,79,3.1,4.9,71.7,0.0,,,0.0,78,0,n/a,2024-07-18T07:44:55Z
2024-07-18 09:47:52,20.8,17.8,1018.6,East,90,5.2,5.2,72.5,0.0,,,0.0,76,0,n/a,2024-07-18T07:47:52Z
2024-07-18 09:53:56,20.8,17.1,1018.6,East,92,4.5,8.5,69,0.0,,,0.0,84,0,n/a,2024-07-18T07:53:56Z
2024-07-18 09:59:52,21.1,17.7,1018.6,East,93,2.8,3.8,70.6,0.0,,,0.0,84,0,n/a,2024-07-18T07:59:52Z
2024-07-18 10:02:56,21.3,17.8,1018.6,East,81,4.5,5.8,70.6,0.0,,,0.0,88,0,n/a,2024-07-18T08:02:56Z
2024-07-18 10:08:55,21.3,17.3,1018.6,NE,41,6.2,9.2,68.3,0.0,,,0.0,90,0,n/a,2024-07-18T08:08:55Z